Latest Weather Observations for Hay Airport

IDN60801

Issued at 10:04 pm EDT Friday 27 February 2015 (issued every 30 minutes, with the page automatically refreshed every 10 minutes)

About weather observations | Map of weather stations | Latest weather observations for NSW | Other Formats
Station Details ID: 075019 Name: HAY AIRPORT AWS Lat: -34.54 Lon: 144.83 Height: 92.0 m
Data from the previous 72 hours. | See also: Recent months for locations in New South Wales
Date/Time
EDT
Temp
°C
App
Temp
°C
Dew
Point
Rel
Hum
%
Delta-T
°C
Wind Press
QNH
hPa
Press
MSL
hPa
Rain
since 9 am
mm
Dir
 
Spd
km/h
Gust
km/h
Spd
kts
Gust
kts
27/09:30pm 25.8 23.7 5.9 28 10.3 SE 6 7 3 4 1007.8 1007.4 0.0
27/09:00pm 27.0 24.4 5.9 26 11.0 SSE 9 11 5 6 1007.5 1007.1 0.0
27/08:30pm 28.1 25.1 6.2 25 11.6 S 11 13 6 7 1007.3 1006.9 0.0
27/08:00pm 29.8 26.8 5.8 22 12.7 S 11 13 6 7 1007.0 1006.6 0.0
27/07:30pm 31.0 27.6 6.1 21 13.4 SSE 13 15 7 8 1006.7 1006.3 0.0
27/07:00pm 31.7 28.3 6.0 20 13.8 SSW 13 19 7 10 1006.6 1006.2 0.0
27/06:30pm 31.9 27.6 5.4 19 14.1 SSW 17 20 9 11 1006.5 1006.1 0.0
27/06:00pm 32.3 29.2 5.7 19 14.3 SW 11 22 6 12 1006.4 1006.0 0.0
27/05:30pm 32.6 30.2 5.2 18 14.6 SW 7 17 4 9 1006.4 1006.0 0.0
27/05:00pm 33.7 30.0 6.1 18 15.0 WSW 15 28 8 15 1006.3 1005.9 0.0
27/04:30pm 33.2 30.3 4.9 17 15.0 SW 9 22 5 12 1006.7 1006.3 0.0
27/04:00pm 32.8 29.3 3.7 16 15.2 S 11 22 6 12 1006.9 1006.5 0.0
27/03:30pm 33.8 30.3 5.4 17 15.3 SSW 13 41 7 22 1007.3 1006.9 0.0
27/03:00pm 32.6 28.7 5.2 18 14.6 S 15 30 8 16 1007.8 1007.4 0.0
27/02:30pm 32.1 28.0 6.3 20 13.9 SSW 17 24 9 13 1008.1 1007.7 0.0
27/02:00pm 31.5 27.8 6.5 21 13.5 SW 15 28 8 15 1008.4 1008.0 0.0
27/01:30pm 30.8 26.7 7.9 24 12.6 SSE 19 35 10 19 1008.7 1008.3 0.0
27/01:00pm 31.1 28.4 8.8 25 12.5 S 13 28 7 15 1009.3 1008.9 0.0
27/12:30pm 29.6 27.2 8.6 27 11.6 S 11 17 6 9 1009.5 1009.1 0.0
27/12:00pm 29.0 27.3 9.7 30 10.9 SSE 9 17 5 9 1010.0 1009.6 0.0
27/11:30am 28.2 27.0 11.7 36 9.5 SSW 9 19 5 10 1010.4 1010.0 0.0
27/11:00am 27.4 26.1 12.6 40 8.7 S 11 17 6 9 1010.5 1010.1 0.0
27/10:30am 26.1 24.5 12.9 44 7.7 SSE 13 20 7 11 1010.5 1010.1 0.0
27/10:00am 24.8 23.3 13.0 47 6.9 SSE 13 17 7 9 1010.3 1009.9 0.0
27/09:30am 23.4 21.1 13.0 52 6.0 SSE 17 20 9 11 1010.2 1009.8 0.0
27/09:00am 21.4 18.5 12.3 56 5.2 SSE 19 24 10 13 1009.9 1009.5 0.0
27/08:30am 20.3 17.8 12.3 60 4.5 SE 17 20 9 11 1009.6 1009.2 0.0
27/08:00am 18.9 17.8 11.9 64 3.9 SSE 9 15 5 8 1009.4 1009.0 0.0
27/07:30am 17.9 16.3 11.7 67 3.4 S 11 15 6 8 1009.3 1008.9 0.0
27/07:00am 17.6 16.3 11.4 67 3.4 SSE 9 13 5 7 1008.9 1008.5 0.0
27/06:30am 17.9 16.7 11.7 67 3.4 SSE 9 11 5 6 1008.6 1008.2 0.0
27/06:00am 18.3 17.1 11.6 65 3.7 S 9 11 5 6 1008.5 1008.1 0.0
27/05:30am 18.4 16.8 11.5 64 3.8 SSW 11 13 6 7 1008.3 1007.9 0.0
27/05:00am 19.1 17.4 11.2 60 4.3 SE 11 13 6 7 1008.0 1007.6 0.0
27/04:30am 20.0 18.0 11.5 58 4.7 SE 13 17 7 9 1007.8 1007.4 0.0
27/04:00am 20.2 18.5 11.1 56 5.0 SE 11 13 6 7 1007.9 1007.5 0.0
27/03:30am 19.8 17.8 10.0 53 5.3 S 11 15 6 8 1008.0 1007.6 0.0
27/03:00am 20.2 18.0 9.5 50 5.7 SSW 11 15 6 8 1008.2 1007.8 0.0
27/02:30am 21.0 18.9 9.6 48 6.1 S 11 13 6 7 1008.4 1008.0 0.0
27/02:00am 19.8 18.2 8.2 47 6.0 S 6 7 3 4 1008.6 1008.2 0.0
27/01:30am 21.6 19.7 9.2 45 6.6 SSW 9 11 5 6 1008.8 1008.4 0.0
27/01:00am 22.4 19.8 9.2 43 7.1 SSW 13 13 7 7 1009.0 1008.6 0.0
27/12:30am 22.1 19.6 8.2 41 7.3 SW 11 13 6 7 1009.0 1008.6 0.0
27/12:00am 22.9 20.8 8.2 39 7.8 SW 9 13 5 7 1008.8 1008.4 0.0
 
Date/Time
EDT
Temp
°C
App
Temp
°C
Dew
Point
Rel
Hum
%
Delta-T
°C
Wind Press
QNH
hPa
Press
MSL
hPa
Rain
since 9 am
mm
Dir
 
Spd
km/h
Gust
km/h
Spd
kts
Gust
kts
26/11:30pm 23.9 21.4 8.3 37 8.3 SW 11 15 6 8 1008.5 1008.1 0.0
26/11:00pm 23.5 20.8 8.8 39 7.9 SW 13 15 7 8 1008.6 1008.2 0.0
26/10:30pm 24.9 22.3 9.2 37 8.6 SSW 13 15 7 8 1008.5 1008.1 0.0
26/10:00pm 26.0 23.4 9.4 35 9.2 S 13 17 7 9 1008.4 1008.0 0.0
26/09:30pm 26.1 23.8 9.0 34 9.4 SSW 11 13 6 7 1008.1 1007.7 0.0
26/09:00pm 27.2 24.9 9.1 32 10.0 SSW 11 13 6 7 1007.9 1007.5 0.0
26/08:30pm 28.7 25.2 8.9 29 11.0 SSW 17 19 9 10 1007.5 1007.1 0.0
26/08:00pm 30.2 26.3 8.6 26 12.0 SSW 19 24 10 13 1007.1 1006.7 0.0
26/07:30pm 31.3 27.1 8.3 24 12.8 SSW 20 28 11 15 1006.7 1006.3 0.0
26/07:00pm 31.9 27.9 8.2 23 13.2 S 19 35 10 19 1006.5 1006.1 0.0
26/06:30pm 32.1 27.2 8.4 23 13.2 S 24 32 13 17 1006.3 1005.9 0.0
26/06:00pm 32.3 27.6 7.9 22 13.6 S 22 33 12 18 1006.3 1005.9 0.0
26/05:30pm 32.9 27.2 8.4 22 13.7 SSW 28 41 15 22 1006.3 1005.9 0.0
26/05:00pm 33.1 28.2 7.1 20 14.3 S 22 37 12 20 1006.4 1006.0 0.0
26/04:30pm 33.3 28.8 8.7 22 13.9 S 22 32 12 17 1006.5 1006.1 0.0
26/04:00pm 32.9 28.0 7.0 20 14.2 SSW 22 39 12 21 1006.8 1006.4 0.0
26/03:30pm 32.9 28.0 8.4 22 13.7 SSW 24 33 13 18 1007.0 1006.6 0.0
26/03:00pm 31.7 27.0 9.3 25 12.7 SSW 24 35 13 19 1007.4 1007.0 0.0
26/02:30pm 31.5 27.0 8.5 24 12.8 SSW 22 35 12 19 1007.9 1007.5 0.0
26/02:00pm 30.6 28.3 10.5 29 11.6 SW 13 28 7 15 1008.1 1007.7 0.0
26/01:30pm 29.8 26.7 8.8 27 11.7 SSW 15 28 8 15 1008.5 1008.1 0.0
26/01:00pm 28.3 25.3 11.8 36 9.6 SW 19 28 10 15 1008.9 1008.5 0.0
26/12:30pm 26.3 23.8 12.4 42 8.1 SW 17 24 9 13 1009.3 1008.9 0.0
26/12:00pm 25.2 21.7 12.1 44 7.5 SSW 22 28 12 15 1009.5 1009.1 0.0
26/11:30am 24.4 22.0 12.7 48 6.8 SW 17 22 9 12 1009.9 1009.5 0.0
26/11:00am 23.9 21.8 12.5 49 6.6 SW 15 20 8 11 1009.7 1009.3 0.0
26/10:30am 23.4 20.8 12.1 49 6.4 SW 17 22 9 12 1009.9 1009.5 0.0
26/10:00am 22.3 19.6 11.7 51 6.0 SW 17 20 9 11 1009.7 1009.3 0.0
26/09:30am 21.9 19.4 11.0 50 6.0 SW 15 19 8 10 1009.6 1009.2 0.0
26/09:00am 19.7 16.8 8.1 47 6.0 WSW 13 17 7 9 1009.2 1008.8 0.0
26/08:30am 18.7 16.4 7.5 48 5.7 W 9 13 5 7 1009.2 1008.8 0.0
26/08:00am 17.6 15.2 6.8 49 5.4 WNW 9 11 5 6 1009.1 1008.7 0.0
26/07:30am 16.2 14.2 6.3 52 4.8 W 6 7 3 4 1008.7 1008.3 0.0
26/07:00am 15.7 14.4 5.9 52 4.7 W 2 7 1 4 1008.5 1008.1 0.0
26/06:30am 15.7 14.6 5.3 50 5.0 CALM 0 0 0 0 1008.3 1007.9 0.0
26/06:00am 16.5 14.4 5.8 49 5.2 ESE 6 13 3 7 1008.3 1007.9 0.0
26/05:30am 17.2 15.0 5.5 46 5.7 SSE 6 7 3 4 1008.2 1007.8 0.0
26/05:00am 17.9 15.6 5.8 45 5.9 WSW 7 9 4 5 1008.1 1007.7 0.0
26/04:30am 17.6 15.4 5.5 45 5.9 SW 6 9 3 5 1008.2 1007.8 0.0
26/04:00am 17.7 15.0 5.6 45 5.9 WSW 9 13 5 7 1008.4 1008.0 0.0
26/03:30am 17.5 14.6 4.8 43 6.1 W 9 11 5 6 1008.5 1008.1 0.0
26/03:00am 17.6 14.7 4.5 42 6.3 WSW 9 9 5 5 1008.8 1008.4 0.0
26/02:30am 17.8 14.8 4.0 40 6.5 W 9 11 5 6 1008.9 1008.5 0.0
26/02:00am 18.7 14.9 4.1 38 7.0 WSW 13 15 7 8 1009.1 1008.7 0.0
26/01:30am 19.7 15.9 3.8 35 7.6 W 13 15 7 8 1009.3 1008.9 0.0
26/01:00am 20.5 16.7 4.1 34 7.9 W 13 17 7 9 1009.5 1009.1 0.0
26/12:30am 19.0 15.9 3.6 36 7.3 W 9 13 5 7 1009.5 1009.1 0.0
26/12:00am 18.6 15.9 3.6 37 7.1 W 7 11 4 6 1009.6 1009.2 0.0
 
Date/Time
EDT
Temp
°C
App
Temp
°C
Dew
Point
Rel
Hum
%
Delta-T
°C
Wind Press
QNH
hPa
Press
MSL
hPa
Rain
since 9 am
mm
Dir
 
Spd
km/h
Gust
km/h
Spd
kts
Gust
kts
25/11:30pm 19.3 16.7 3.1 34 7.6 W 6 7 3 4 1009.7 1009.3 0.0
25/11:00pm 20.6 18.0 3.3 32 8.2 WSW 6 7 3 4 1009.9 1009.5 0.0
25/10:30pm 21.9 18.8 3.6 30 8.8 WSW 9 11 5 6 1009.9 1009.5 0.0
25/10:00pm 22.8 19.2 2.8 27 9.6 WSW 11 13 6 7 1009.8 1009.4 0.0
25/09:30pm 23.4 20.1 2.3 25 10.1 SW 9 13 5 7 1009.4 1009.0 0.0
25/09:00pm 24.6 20.9 2.1 23 10.8 SW 11 15 6 8 1009.0 1008.6 0.0
25/08:30pm 25.7 21.9 1.8 21 11.5 SW 11 13 6 7 1008.7 1008.3 0.0
25/08:00pm 27.7 23.2 2.0 19 12.6 SW 15 17 8 9 1008.9 1008.5 0.0
25/07:30pm 29.2 23.9 1.7 17 13.5 SW 19 26 10 14 1008.8 1008.4 0.0
25/07:00pm 29.8 24.4 1.3 16 14.0 SW 19 28 10 15 1008.8 1008.4 0.0
25/06:30pm 30.1 24.8 3.2 18 13.6 WSW 20 30 11 16 1008.9 1008.5 0.0
25/06:00pm 30.4 25.2 3.4 18 13.8 SW 20 30 11 16 1008.8 1008.4 0.0
25/05:30pm 30.1 24.9 2.4 17 13.8 WSW 19 26 10 14 1009.1 1008.7 0.0
25/05:00pm 30.7 25.7 3.7 18 13.9 W 19 28 10 15 1009.3 1008.9 0.0
25/04:30pm 30.2 25.4 2.5 17 13.9 WSW 17 30 9 16 1009.6 1009.2 0.0
25/04:00pm 30.2 25.0 2.5 17 13.9 W 19 33 10 18 1010.2 1009.8 0.0
25/03:30pm 29.3 25.1 4.0 20 12.9 WSW 15 24 8 13 1010.6 1010.2 0.0
25/03:00pm 29.2 25.7 5.3 22 12.5 WNW 13 22 7 12 1011.0 1010.6 0.0
25/02:30pm 28.0 24.7 6.2 25 11.5 W 13 20 7 11 1011.7 1011.2 0.0
25/02:00pm 27.4 25.2 7.8 29 10.6 WSW 9 17 5 9 1012.1 1011.6 0.0
25/01:30pm 26.3 24.5 7.8 31 9.9 W 7 19 4 10 1012.6 1012.1 0.0
25/01:00pm 25.3 23.4 7.4 32 9.5 W 7 17 4 9 1013.0 1012.5 0.0
25/12:30pm 24.5 22.1 8.5 36 8.6 W 11 17 6 9 1013.6 1013.1 0.0
25/12:00pm 23.0 21.4 8.7 40 7.7 W 7 13 4 7 1014.0 1013.5 0.0
25/11:30am 22.8 19.9 9.6 43 7.2 WSW 15 20 8 11 1014.6 1014.1 0.0
25/11:00am 21.0 18.4 9.3 47 6.3 WSW 13 22 7 12 1014.4 1013.9 0.0
25/10:30am 19.6 18.5 9.8 53 5.2 SW 6 13 3 7 1014.3 1013.8 0.0
25/10:00am 19.0 17.5 10.6 58 4.5 SSW 9 15 5 8 1014.5 1014.0 0.0
25/09:30am 17.3 14.7 9.5 60 4.1 SSW 13 17 7 9 1014.6 1014.1 0.0
25/09:00am 15.8 12.8 9.2 65 3.4 SSW 15 19 8 10 1014.6 1014.1 0.0
25/08:30am 14.6 11.8 8.5 67 3.1 SSW 13 17 7 9 1014.3 1013.8 0.0
25/08:00am 13.2 11.1 8.1 71 2.5 SSW 9 13 5 7 1014.0 1013.5 0.0
25/07:30am 12.3 9.8 8.0 75 2.1 SW 11 13 6 7 1014.0 1013.5 0.0
25/07:00am 11.9 9.7 7.8 76 2.0 SSW 9 11 5 6 1013.8 1013.3 0.0
25/06:30am 12.5 10.0 8.0 74 2.2 SW 11 15 6 8 1013.8 1013.3 0.0
25/06:00am 12.6 10.1 8.3 75 2.1 SSW 11 17 6 9 1013.6 1013.1 0.0
25/05:30am 12.9 10.0 8.2 73 2.3 SW 13 15 7 8 1013.5 1013.0 0.0
25/05:00am 13.5 11.4 8.4 71 2.6 S 9 13 5 7 1013.3 1012.8 0.0
25/04:30am 14.0 11.2 8.4 69 2.8 SSE 13 15 7 8 1013.4 1012.9 0.0
25/04:00am 14.7 11.9 8.4 66 3.2 S 13 20 7 11 1013.7 1013.2 0.0
25/03:30am 14.9 11.6 8.2 64 3.4 S 15 19 8 10 1014.2 1013.7 0.0
25/03:00am 15.2 11.5 8.0 62 3.6 SSW 17 20 9 11 1013.7 1013.2 0.0
25/02:30am 16.0 12.2 7.7 58 4.2 S 17 20 9 11 1013.9 1013.4 0.0
25/02:00am 16.2 12.0 7.4 56 4.4 SSW 19 24 10 13 1014.2 1013.7 0.0
25/01:30am 16.9 12.5 7.5 54 4.7 S 20 26 11 14 1014.4 1013.9 0.0
25/01:00am 17.7 13.5 7.4 51 5.2 S 19 26 10 14 1014.6 1014.1 0.0
25/12:30am 18.4 13.6 7.2 48 5.7 S 22 30 12 16 1014.8 1014.3 0.0
25/12:00am 19.3 14.8 7.1 45 6.2 S 20 28 11 15 1014.7 1014.2 0.0
 
Date/Time
EDT
Temp
°C
App
Temp
°C
Dew
Point
Rel
Hum
%
Delta-T
°C
Wind Press
QNH
hPa
Press
MSL
hPa
Rain
since 9 am
mm
Dir
 
Spd
km/h
Gust
km/h
Spd
kts
Gust
kts
24/11:30pm 20.3 15.8 7.0 42 6.8 S 20 28 11 15 1014.7 1014.2 0.0
24/11:00pm 21.2 16.8 6.7 39 7.4 S 19 24 10 13 1014.9 1014.4 0.0
24/10:30pm 21.7 17.0 6.0 36 7.9 S 20 28 11 15 1014.8 1014.3 0.0

Other Formats:

Comma delimited format used in spreadsheet applications
http://www.bom.gov.au/fwo/IDN60801/IDN60801.94702.axf

JavaScript Object Notation format (JSON) in row-major order
http://www.bom.gov.au/fwo/IDN60801/IDN60801.94702.json